createdAt,value
2023-01-29T00:02:38.236Z,2.50
2023-01-29T00:05:26.376Z,2.08
2023-01-29T00:07:59.409Z,1.90
2023-01-29T00:10:28.529Z,2.45
2023-01-29T00:12:57.564Z,2.20
2023-01-29T00:15:29.263Z,2.13
2023-01-29T00:17:58.564Z,1.52
2023-01-29T00:20:29.572Z,1.95
2023-01-29T00:22:58.744Z,5.00
2023-01-29T00:25:27.736Z,2.17
2023-01-29T00:28:02.229Z,2.60
2023-01-29T00:30:31.273Z,2.05
2023-01-29T00:33:02.585Z,2.50
2023-01-29T00:35:37.344Z,1.70
2023-01-29T00:38:06.696Z,1.95
2023-01-29T00:40:59.069Z,3.42
2023-01-29T00:43:51.033Z,5.18
2023-01-29T00:46:22.732Z,3.05
2023-01-29T00:48:51.889Z,1.42
2023-01-29T00:51:23.069Z,1.60
2023-01-29T00:53:59.081Z,2.05
2023-01-29T00:56:29.974Z,2.50
2023-01-29T00:58:59.026Z,11.80
2023-01-29T01:01:46.337Z,4.13
2023-01-29T01:04:15.843Z,2.65
2023-01-29T01:06:44.804Z,2.13
2023-01-29T01:09:35.781Z,2.63
2023-01-29T01:12:04.902Z,2.30
2023-01-29T01:14:37.003Z,3.25
2023-01-29T01:17:26.148Z,2.63
2023-01-29T01:20:33.064Z,2.22
2023-01-29T01:23:15.309Z,3.08
2023-01-29T01:29:23.095Z,5.75
2023-01-29T01:31:56.848Z,4.63
2023-01-29T01:34:27.968Z,7.40
2023-01-29T01:36:57.312Z,4.13
2023-01-29T01:39:29.484Z,3.88
2023-01-29T01:42:02.841Z,3.28
2023-01-29T01:45:04.665Z,3.45
2023-01-29T01:47:38.621Z,2.88
2023-01-29T01:50:17.440Z,2.58
2023-01-29T01:52:54.322Z,2.75
2023-01-29T01:55:28.641Z,2.38
2023-01-29T01:58:06.892Z,1.80
2023-01-29T02:00:38.587Z,1.70
2023-01-29T02:03:29.358Z,2.05
2023-01-29T02:06:19.563Z,1.80
2023-01-29T02:09:16.937Z,1.42
2023-01-29T02:11:48.488Z,1.20
2023-01-29T02:15:26.853Z,1.33
2023-01-29T02:17:59.962Z,1.85
2023-01-29T02:20:35.477Z,6.28
2023-01-29T02:28:49.727Z,1.20
2023-01-29T02:31:36.088Z,0.80
2023-01-29T02:34:25.941Z,1.55
2023-01-29T02:37:06.243Z,0.90
2023-01-29T02:39:56.505Z,0.77
2023-01-29T02:43:00.637Z,1.08
2023-01-29T02:47:00.140Z,0.98
2023-01-29T02:50:17.184Z,0.80
2023-01-29T02:54:14.219Z,1.65
2023-01-29T02:57:11.069Z,4.00
2023-01-29T03:00:14.101Z,4.75
2023-01-29T03:03:14.169Z,3.17
2023-01-29T03:06:26.274Z,1.52
2023-01-29T03:09:21.708Z,2.35
2023-01-29T03:11:56.601Z,4.22
2023-01-29T03:15:11.106Z,6.95
2023-01-29T03:18:09.791Z,4.72
2023-01-29T03:20:55.747Z,2.67
2023-01-29T03:23:54.620Z,1.55
2023-01-29T03:26:45.244Z,2.60
2023-01-29T03:29:36.161Z,1.10
2023-01-29T03:32:08.907Z,2.42
2023-01-29T03:34:48.310Z,1.10
2023-01-29T03:37:32.107Z,1.50
2023-01-29T03:40:08.189Z,2.33
2023-01-29T03:43:31.569Z,1.85
2023-01-29T03:46:25.571Z,4.05
2023-01-29T03:49:12.807Z,1.38
2023-01-29T03:51:54.809Z,1.45
2023-01-29T03:54:55.387Z,1.05
2023-01-29T03:57:47.088Z,2.85
2023-01-29T04:00:29.930Z,3.20
2023-01-29T04:03:21.716Z,4.15
2023-01-29T04:05:59.360Z,3.88
2023-01-29T04:08:37.947Z,2.55
2023-01-29T04:11:13.841Z,2.53
2023-01-29T04:13:44.457Z,2.63
2023-01-29T04:16:26.966Z,2.25
2023-01-29T04:19:16.586Z,1.45
2023-01-29T04:21:52.158Z,2.08
2023-01-29T04:24:29.677Z,1.30
2023-01-29T04:27:27.654Z,1.25
2023-01-29T04:30:36.125Z,1.20
2023-01-29T04:33:23.571Z,1.20
2023-01-29T04:36:22.479Z,1.63
2023-01-29T04:39:19.650Z,1.25
2023-01-29T04:42:12.864Z,5.43
2023-01-29T04:45:17.713Z,8.05
2023-01-29T04:48:10.734Z,3.72
2023-01-29T04:50:45.924Z,4.53
2023-01-29T04:53:27.462Z,2.70
2023-01-29T04:56:09.639Z,3.33
2023-01-29T04:58:51.013Z,3.70
2023-01-29T05:01:23.433Z,4.63
2023-01-29T05:03:58.222Z,2.70
2023-01-29T05:06:38.965Z,2.30
2023-01-29T05:09:10.749Z,2.15
2023-01-29T05:11:43.490Z,2.60
2023-01-29T05:14:18.557Z,3.13
2023-01-29T05:16:54.748Z,2.58
2023-01-29T05:19:24.265Z,2.85
2023-01-29T05:21:54.183Z,4.18
2023-01-29T05:24:30.548Z,3.22
2023-01-29T05:27:31.036Z,3.83
2023-01-29T05:30:00.314Z,6.40
2023-01-29T05:32:38.335Z,8.73
2023-01-29T05:35:10.604Z,8.82
2023-01-29T05:37:39.811Z,19.92
2023-01-29T05:40:12.944Z,14.73
2023-01-29T05:42:42.133Z,6.63
2023-01-29T05:45:11.845Z,6.32
2023-01-29T05:47:41.127Z,6.82
2023-01-29T05:50:10.937Z,7.95
2023-01-29T05:52:40.179Z,6.88
2023-01-29T05:55:14.992Z,10.35
2023-01-29T05:57:46.750Z,14.95
2023-01-29T06:00:16.949Z,17.25
2023-01-29T06:02:47.984Z,5.10
2023-01-29T06:05:19.491Z,3.70
2023-01-29T06:07:48.852Z,3.10
2023-01-29T06:10:21.108Z,2.97
2023-01-29T06:12:50.221Z,2.17
2023-01-29T06:15:20.588Z,1.58
2023-01-29T06:17:49.942Z,2.72
2023-01-29T06:20:22.221Z,6.20
2023-01-29T06:22:54.218Z,5.72
2023-01-29T06:25:26.627Z,7.70
2023-01-29T06:27:59.519Z,14.13
2023-01-29T06:30:32.759Z,25.63
2023-01-29T06:33:21.802Z,31.45
2023-01-29T06:35:52.967Z,44.30
2023-01-29T06:38:22.025Z,45.63
2023-01-29T06:40:51.159Z,41.40
2023-01-29T06:43:25.748Z,25.88
2023-01-29T06:46:02.404Z,28.33
2023-01-29T06:48:32.455Z,19.35
2023-01-29T06:51:07.239Z,11.00
2023-01-29T06:53:39.510Z,11.27
2023-01-29T06:56:16.746Z,8.93
2023-01-29T06:58:47.980Z,5.78
2023-01-29T07:01:34.588Z,7.60
2023-01-29T07:04:13.625Z,12.10
2023-01-29T07:06:43.580Z,10.05
2023-01-29T07:09:16.094Z,9.40
2023-01-29T07:11:45.562Z,13.18
2023-01-29T07:14:17.447Z,8.30
2023-01-29T07:16:46.633Z,6.10
2023-01-29T07:19:15.872Z,5.80
2023-01-29T07:21:47.227Z,9.48
2023-01-29T07:24:19.365Z,7.00
2023-01-29T07:26:48.633Z,4.75
2023-01-29T07:29:18.011Z,4.47
2023-01-29T07:31:48.016Z,4.05
2023-01-29T07:34:18.362Z,5.55
2023-01-29T07:36:47.431Z,4.32
2023-01-29T07:39:16.550Z,6.13
2023-01-29T07:41:48.139Z,7.85
2023-01-29T07:44:18.288Z,9.07
2023-01-29T07:46:47.407Z,5.43
2023-01-29T07:49:17.466Z,11.30
2023-01-29T07:51:49.760Z,15.40
2023-01-29T07:54:19.105Z,10.13
2023-01-29T07:56:49.146Z,5.53
2023-01-29T07:59:18.493Z,4.03
2023-01-29T08:01:51.225Z,3.65
2023-01-29T08:04:22.526Z,3.47
2023-01-29T08:07:00.243Z,3.80
2023-01-29T08:09:32.873Z,4.28
2023-01-29T08:12:04.145Z,9.02
2023-01-29T08:14:34.156Z,2.85
2023-01-29T08:17:06.056Z,2.80
2023-01-29T08:19:36.701Z,2.60
2023-01-29T08:22:08.617Z,4.22
2023-01-29T08:24:53.280Z,4.60
2023-01-29T08:27:30.394Z,4.18
2023-01-29T08:30:02.084Z,8.80
2023-01-29T08:32:32.136Z,3.83
2023-01-29T08:35:01.578Z,6.00
2023-01-29T08:37:30.578Z,7.32
2023-01-29T08:39:59.691Z,5.95
2023-01-29T08:42:29.049Z,4.63
2023-01-29T08:45:01.088Z,2.80
2023-01-29T08:47:30.241Z,3.13
2023-01-29T08:50:04.571Z,5.47
2023-01-29T08:52:34.136Z,4.57
2023-01-29T08:55:03.456Z,6.80
2023-01-29T08:57:32.586Z,11.88
2023-01-29T09:00:03.686Z,7.55
2023-01-29T09:02:32.871Z,6.65
2023-01-29T09:05:05.195Z,2.95
2023-01-29T09:07:37.403Z,2.78
2023-01-29T09:10:06.827Z,2.85
2023-01-29T09:12:38.563Z,5.20
2023-01-29T09:15:11.492Z,15.45
2023-01-29T09:17:41.826Z,16.55
2023-01-29T09:20:13.916Z,16.20
2023-01-29T09:22:43.521Z,14.20
2023-01-29T09:25:18.330Z,14.23
2023-01-29T09:27:47.642Z,12.48
2023-01-29T09:30:17.560Z,8.85
2023-01-29T09:32:54.782Z,5.38
2023-01-29T09:35:25.220Z,6.10
2023-01-29T09:37:54.489Z,6.97
2023-01-29T09:40:41.594Z,4.00
2023-01-29T09:43:33.625Z,4.93
2023-01-29T09:46:11.949Z,6.43
2023-01-29T09:48:41.254Z,4.22
2023-01-29T09:51:26.928Z,4.72
2023-01-29T09:54:14.096Z,4.95
2023-01-29T09:56:46.175Z,5.35
2023-01-29T09:59:23.946Z,3.83
2023-01-29T10:01:59.749Z,3.90
2023-01-29T10:04:59.413Z,3.67
2023-01-29T10:07:45.738Z,4.57
2023-01-29T10:10:30.519Z,6.07
2023-01-29T10:13:04.759Z,5.85
2023-01-29T10:15:38.812Z,6.35
2023-01-29T10:18:33.891Z,4.22
2023-01-29T10:21:25.697Z,3.17
2023-01-29T10:24:27.471Z,3.72
2023-01-29T10:26:57.360Z,3.63
2023-01-29T10:29:37.816Z,6.80
2023-01-29T10:32:07.614Z,8.38
2023-01-29T10:34:50.134Z,10.15
2023-01-29T10:37:26.794Z,4.95
2023-01-29T10:40:01.114Z,4.43
2023-01-29T10:42:47.460Z,2.50
2023-01-29T10:45:56.977Z,2.03
2023-01-29T10:48:47.553Z,2.15
2023-01-29T10:51:33.747Z,4.80
2023-01-29T10:54:24.967Z,2.75
2023-01-29T10:57:03.544Z,2.47
2023-01-29T10:59:57.257Z,2.70
2023-01-29T11:02:26.656Z,2.28
2023-01-29T11:04:58.879Z,2.78
2023-01-29T11:07:33.688Z,1.98
2023-01-29T11:10:13.479Z,1.70
2023-01-29T11:12:47.483Z,2.05
2023-01-29T11:15:20.173Z,2.75
2023-01-29T11:18:22.416Z,4.15
2023-01-29T11:21:05.296Z,2.47
2023-01-29T11:23:35.538Z,2.05
2023-01-29T11:26:05.941Z,2.47
2023-01-29T11:28:44.912Z,2.53
2023-01-29T11:31:27.308Z,2.58
2023-01-29T11:34:22.983Z,3.22
2023-01-29T11:37:06.967Z,2.60
2023-01-29T11:39:49.752Z,3.33
2023-01-29T11:42:24.419Z,6.47
2023-01-29T11:44:54.071Z,3.60
2023-01-29T11:47:31.615Z,3.60
2023-01-29T11:50:05.136Z,3.20
2023-01-29T11:52:43.103Z,2.53
2023-01-29T11:55:48.152Z,3.30
2023-01-29T11:58:32.693Z,3.35
2023-01-29T12:01:02.470Z,4.50
2023-01-29T12:03:50.332Z,2.65
2023-01-29T12:06:43.490Z,2.50
2023-01-29T12:09:28.924Z,5.35
2023-01-29T12:12:19.863Z,3.25
2023-01-29T12:15:26.761Z,3.90
2023-01-29T12:18:07.511Z,3.22
2023-01-29T12:20:51.313Z,2.80
2023-01-29T12:23:51.723Z,2.97
2023-01-29T12:26:45.821Z,2.95
2023-01-29T12:29:37.927Z,3.47
2023-01-29T12:32:16.043Z,2.92
2023-01-29T12:34:54.471Z,3.75
2023-01-29T12:37:48.958Z,4.93
2023-01-29T12:40:20.303Z,2.42
2023-01-29T12:42:56.600Z,3.53
2023-01-29T12:45:29.511Z,4.20
2023-01-29T12:48:33.856Z,3.17
2023-01-29T12:51:39.987Z,3.85
2023-01-29T12:54:20.532Z,2.50
2023-01-29T12:56:54.568Z,3.10
2023-01-29T12:59:48.581Z,4.10
2023-01-29T13:02:41.734Z,4.95
2023-01-29T13:06:00.240Z,3.20
2023-01-29T13:08:40.530Z,3.08
2023-01-29T13:11:16.574Z,2.38
2023-01-29T13:13:54.590Z,2.83
2023-01-29T13:16:37.169Z,3.55
2023-01-29T13:19:31.320Z,3.22
2023-01-29T13:22:04.517Z,5.93
2023-01-29T13:24:44.335Z,2.70
2023-01-29T13:27:28.952Z,2.40
2023-01-29T13:30:02.498Z,2.70
2023-01-29T13:32:37.681Z,2.92
2023-01-29T13:35:20.095Z,1.95
2023-01-29T13:37:57.338Z,1.63
2023-01-29T13:40:30.084Z,3.13
2023-01-29T13:43:00.288Z,2.60
2023-01-29T13:45:45.743Z,2.03
2023-01-29T13:48:30.081Z,2.03
2023-01-29T13:51:03.897Z,1.85
2023-01-29T13:53:39.215Z,2.33
2023-01-29T13:56:36.316Z,2.30
2023-01-29T13:59:07.812Z,2.35
2023-01-29T14:01:52.105Z,3.47
2023-01-29T14:04:24.910Z,2.42
2023-01-29T14:06:59.414Z,4.63
2023-01-29T14:09:43.059Z,2.20
2023-01-29T14:12:38.953Z,2.38
2023-01-29T14:15:25.235Z,1.70
2023-01-29T14:18:16.965Z,4.97
2023-01-29T14:20:49.545Z,2.20
2023-01-29T14:23:55.427Z,2.95
2023-01-29T14:26:46.992Z,3.17
2023-01-29T14:29:34.843Z,4.32
2023-01-29T14:32:07.777Z,2.95
2023-01-29T14:34:51.219Z,2.53
2023-01-29T14:37:39.837Z,3.38
2023-01-29T14:40:23.845Z,2.67
2023-01-29T14:43:05.505Z,4.47
2023-01-29T14:45:45.779Z,2.70
2023-01-29T14:48:49.480Z,3.72
2023-01-29T14:51:33.295Z,3.08
2023-01-29T14:54:10.893Z,3.95
2023-01-29T14:57:06.014Z,1.92
2023-01-29T15:00:01.953Z,3.08
2023-01-29T15:02:43.680Z,2.53
2023-01-29T15:05:21.817Z,2.10
2023-01-29T15:08:06.042Z,2.20
2023-01-29T15:10:44.989Z,3.78
2023-01-29T15:13:37.301Z,3.42
2023-01-29T15:16:18.699Z,2.88
2023-01-29T15:18:53.932Z,2.92
2023-01-29T15:21:24.074Z,3.13
2023-01-29T15:24:18.631Z,5.13
2023-01-29T15:26:48.252Z,2.40
2023-01-29T15:29:31.662Z,3.38
2023-01-29T15:32:02.755Z,2.50
2023-01-29T15:34:32.155Z,3.85
2023-01-29T15:37:01.366Z,2.20
2023-01-29T15:39:46.768Z,2.38
2023-01-29T15:42:24.530Z,4.13
2023-01-29T15:44:56.797Z,2.53
2023-01-29T15:47:32.532Z,32.22
2023-01-29T15:50:02.104Z,26.27
2023-01-29T15:52:40.004Z,8.13
2023-01-29T15:55:18.085Z,7.18
2023-01-29T15:57:50.430Z,8.60
2023-01-29T16:00:29.078Z,15.95
2023-01-29T16:03:07.549Z,7.18
2023-01-29T16:05:39.503Z,14.32
2023-01-29T16:08:18.454Z,13.40
2023-01-29T16:10:54.610Z,5.75
2023-01-29T16:17:42.141Z,4.13
2023-01-29T16:20:32.640Z,6.25
2023-01-29T16:23:06.140Z,6.88
2023-01-29T16:25:37.547Z,12.32
2023-01-29T16:28:18.619Z,9.65
2023-01-29T16:30:48.521Z,10.00
2023-01-29T16:33:23.372Z,9.20
2023-01-29T16:35:56.970Z,5.53
2023-01-29T16:38:37.333Z,3.58
2023-01-29T16:41:36.502Z,3.28
2023-01-29T16:44:36.984Z,3.00
2023-01-29T16:47:39.768Z,4.00
2023-01-29T16:55:49.037Z,6.32
2023-01-29T16:59:40.152Z,7.82
2023-01-29T17:02:52.013Z,5.20
2023-01-29T17:06:04.653Z,5.77
2023-01-29T17:13:55.241Z,6.47
2023-01-29T17:16:57.681Z,5.05
2023-01-29T17:32:44.440Z,5.05
2023-01-29T17:43:04.822Z,3.05
2023-01-29T17:46:08.800Z,2.90
2023-01-29T17:48:41.965Z,7.53
2023-01-29T17:51:24.780Z,4.03
2023-01-29T17:53:56.412Z,3.38
2023-01-29T17:56:32.458Z,3.10
2023-01-29T17:59:01.969Z,3.85
2023-01-29T18:01:31.674Z,4.55
2023-01-29T18:04:03.933Z,4.63
2023-01-29T18:06:36.022Z,6.25
2023-01-29T18:09:06.331Z,3.75
2023-01-29T18:11:44.967Z,5.03
2023-01-29T18:14:17.391Z,4.45
2023-01-29T18:16:55.154Z,5.55
2023-01-29T18:19:29.305Z,3.80
2023-01-29T18:21:58.677Z,7.15
2023-01-29T18:24:38.443Z,3.35
2023-01-29T18:27:07.918Z,3.95
2023-01-29T18:29:37.720Z,3.90
2023-01-29T18:32:34.111Z,4.28
2023-01-29T18:35:09.433Z,3.40
2023-01-29T18:37:49.859Z,3.35
2023-01-29T18:40:35.491Z,4.28
2023-01-29T18:43:31.997Z,2.83
2023-01-29T18:47:24.913Z,4.28
2023-01-29T18:50:14.471Z,3.45
2023-01-29T18:52:39.569Z,3.60
2023-01-29T18:55:29.230Z,3.50
2023-01-29T18:58:35.528Z,3.03
2023-01-29T19:03:10.177Z,3.78
2023-01-29T19:05:42.320Z,2.70
2023-01-29T19:08:14.468Z,2.72
2023-01-29T19:10:43.556Z,2.08
2023-01-29T19:13:22.643Z,6.50
2023-01-29T19:15:51.624Z,3.33
2023-01-29T19:18:26.774Z,3.47
2023-01-29T19:20:56.505Z,3.60
2023-01-29T19:23:25.464Z,3.28
2023-01-29T19:26:00.920Z,2.22
2023-01-29T19:28:31.899Z,2.15
2023-01-29T19:31:02.994Z,2.75
2023-01-29T19:33:34.499Z,2.45
2023-01-29T19:36:03.957Z,2.50
2023-01-29T19:38:35.384Z,1.52
2023-01-29T19:41:06.120Z,2.22
2023-01-29T19:43:35.527Z,2.40
2023-01-29T19:46:04.841Z,2.35
2023-01-29T19:48:34.327Z,4.47
2023-01-29T19:55:09.157Z,1.08
2023-01-29T19:58:27.107Z,1.38
2023-01-29T20:01:32.581Z,1.60
2023-01-29T20:05:08.008Z,1.48
2023-01-29T20:07:03.881Z,1.25
2023-01-29T20:10:52.382Z,1.40
2023-01-29T20:13:43.906Z,1.98
2023-01-29T20:19:41.208Z,1.35
2023-01-29T20:22:16.202Z,2.20
2023-01-29T20:24:51.898Z,4.20
2023-01-29T20:27:25.700Z,1.00
2023-01-29T20:30:01.021Z,1.38
2023-01-29T20:33:39.681Z,3.50
2023-01-29T20:41:17.351Z,4.97
2023-01-29T20:43:51.588Z,1.45
2023-01-29T20:46:23.466Z,1.17
2023-01-29T20:48:58.377Z,1.35
2023-01-29T20:51:49.719Z,1.98
2023-01-29T20:54:26.960Z,2.03
2023-01-29T20:56:59.109Z,1.35
2023-01-29T21:00:32.678Z,1.13
2023-01-29T21:08:41.329Z,1.50
2023-01-29T21:22:22.666Z,0.75
2023-01-29T21:25:01.774Z,0.90
2023-01-29T21:27:31.058Z,0.80
2023-01-29T21:30:25.768Z,1.65
2023-01-29T21:33:47.417Z,0.70
2023-01-29T21:42:12.535Z,0.70
2023-01-29T21:44:44.795Z,0.80
2023-01-29T21:47:13.985Z,1.08
2023-01-29T21:49:45.579Z,1.02
2023-01-29T21:55:05.160Z,2.00
2023-01-29T21:57:34.802Z,1.77
2023-01-29T22:00:06.210Z,1.67
2023-01-29T22:02:46.780Z,1.90
2023-01-29T22:05:34.764Z,1.88
2023-01-29T22:08:08.614Z,0.77
2023-01-29T22:10:41.813Z,1.13
2023-01-29T22:13:21.858Z,2.13
2023-01-29T22:16:03.377Z,2.53
2023-01-29T22:18:34.541Z,1.90
2023-01-29T22:21:06.895Z,0.95
2023-01-29T22:23:40.510Z,1.20
2023-01-29T22:26:14.020Z,0.80
2023-01-29T22:28:46.119Z,0.70
2023-01-29T22:31:19.112Z,0.70
2023-01-29T22:33:54.918Z,2.10
2023-01-29T22:36:32.760Z,2.38
2023-01-29T22:39:10.117Z,1.55
2023-01-29T22:41:47.537Z,0.90
2023-01-29T22:44:21.623Z,1.25
2023-01-29T22:46:51.406Z,2.03
2023-01-29T22:49:28.984Z,2.38
2023-01-29T22:52:16.242Z,2.70
2023-01-29T22:54:52.368Z,4.25
2023-01-29T22:57:29.079Z,1.30
2023-01-29T23:00:12.833Z,18.38
2023-01-29T23:02:42.230Z,28.08
2023-01-29T23:05:16.155Z,3.92
2023-01-29T23:07:46.125Z,1.77
2023-01-29T23:10:19.433Z,0.95
2023-01-29T23:12:49.775Z,0.80
2023-01-29T23:15:19.489Z,1.77
2023-01-29T23:17:51.992Z,1.73
2023-01-29T23:20:24.891Z,1.17
2023-01-29T23:23:00.117Z,1.70
2023-01-29T23:25:48.783Z,2.05
2023-01-29T23:28:24.493Z,1.80
2023-01-29T23:30:56.973Z,4.00
2023-01-29T23:33:42.548Z,1.65
2023-01-29T23:36:12.203Z,4.18
2023-01-29T23:38:49.482Z,1.55
2023-01-29T23:41:22.620Z,3.88
2023-01-29T23:43:55.419Z,5.40
2023-01-29T23:46:35.405Z,1.67
2023-01-29T23:49:06.570Z,2.70
2023-01-29T23:51:52.551Z,2.47
2023-01-29T23:54:33.054Z,15.55
2023-01-29T23:57:03.743Z,5.30
2023-01-29T23:59:37.209Z,1.55
